createdAt,value
2022-12-24T00:01:13.793Z,3.78
2022-12-24T00:03:15.354Z,3.30
2022-12-24T00:05:17.229Z,3.50
2022-12-24T00:07:20.397Z,4.28
2022-12-24T00:09:21.953Z,2.67
2022-12-24T00:11:23.531Z,3.40
2022-12-24T00:13:25.211Z,3.60
2022-12-24T00:15:27.088Z,3.40
2022-12-24T00:17:28.752Z,3.42
2022-12-24T00:19:30.321Z,3.33
2022-12-24T00:21:31.962Z,2.55
2022-12-24T00:23:35.238Z,3.10
2022-12-24T00:25:36.784Z,2.83
2022-12-24T00:27:38.327Z,2.67
2022-12-24T00:29:39.937Z,2.47
2022-12-24T00:31:41.488Z,2.53
2022-12-24T00:33:43.101Z,3.03
2022-12-24T00:35:44.649Z,2.20
2022-12-24T00:37:47.507Z,2.90
2022-12-24T00:39:50.386Z,2.90
2022-12-24T00:41:51.979Z,2.70
2022-12-24T00:43:54.804Z,3.00
2022-12-24T00:45:57.548Z,2.73
2022-12-24T00:47:59.160Z,3.60
2022-12-24T00:50:00.979Z,2.90
2022-12-24T00:52:02.603Z,2.23
2022-12-24T00:54:04.945Z,3.10
2022-12-24T00:56:08.683Z,2.80
2022-12-24T00:58:10.223Z,2.80
2022-12-24T01:00:12.266Z,3.03
2022-12-24T01:02:14.093Z,2.70
2022-12-24T01:04:15.930Z,3.33
2022-12-24T01:06:19.238Z,3.15
2022-12-24T01:08:20.758Z,3.33
2022-12-24T01:10:22.411Z,2.50
2022-12-24T01:12:25.817Z,3.07
2022-12-24T01:14:27.473Z,2.43
2022-12-24T01:16:29.278Z,3.47
2022-12-24T01:18:31.038Z,2.67
2022-12-24T01:20:32.654Z,3.30
2022-12-24T01:22:34.198Z,3.35
2022-12-24T01:24:35.888Z,2.95
2022-12-24T01:26:40.032Z,2.60
2022-12-24T01:28:42.930Z,2.90
2022-12-24T01:30:44.598Z,2.45
2022-12-24T01:32:46.219Z,3.40
2022-12-24T01:34:47.791Z,3.17
2022-12-24T01:36:49.376Z,2.83
2022-12-24T01:38:50.956Z,2.58
2022-12-24T01:40:52.526Z,2.72
2022-12-24T01:42:54.107Z,2.67
2022-12-24T01:44:57.015Z,3.33
2022-12-24T01:47:06.968Z,3.70
2022-12-24T01:49:11.627Z,2.95
2022-12-24T01:51:21.923Z,3.37
2022-12-24T01:53:24.008Z,3.00
2022-12-24T01:55:26.307Z,2.40
2022-12-24T01:57:37.695Z,2.45
2022-12-24T01:59:42.153Z,2.53
2022-12-24T02:01:52.788Z,2.65
2022-12-24T02:03:55.804Z,2.85
2022-12-24T02:05:59.023Z,2.75
2022-12-24T02:08:03.636Z,2.72
2022-12-24T02:10:08.279Z,3.20
2022-12-24T02:12:09.906Z,2.40
2022-12-24T02:14:12.856Z,3.03
2022-12-24T02:16:27.665Z,2.83
2022-12-24T02:18:38.504Z,2.95
2022-12-24T02:21:06.382Z,2.53
2022-12-24T02:23:24.789Z,3.97
2022-12-24T02:26:00.253Z,2.67
2022-12-24T02:28:14.098Z,2.83
2022-12-24T02:30:19.768Z,2.40
2022-12-24T02:32:24.435Z,3.28
2022-12-24T02:34:32.966Z,2.42
2022-12-24T02:36:40.069Z,2.67
2022-12-24T02:38:47.297Z,3.43
2022-12-24T02:40:52.728Z,3.57
2022-12-24T02:42:58.527Z,3.10
2022-12-24T02:45:05.291Z,2.88
2022-12-24T02:47:09.957Z,3.40
2022-12-24T02:49:12.319Z,2.87
2022-12-24T02:51:14.264Z,3.17
2022-12-24T02:53:15.901Z,3.13
2022-12-24T02:55:21.798Z,2.80
2022-12-24T02:57:34.327Z,2.83
2022-12-24T02:59:55.087Z,2.60
2022-12-24T03:02:07.687Z,3.10
2022-12-24T03:04:16.434Z,2.50
2022-12-24T03:06:30.974Z,3.28
2022-12-24T03:08:43.633Z,4.03
2022-12-24T03:10:55.069Z,2.70
2022-12-24T03:13:02.717Z,2.40
2022-12-24T03:15:06.767Z,3.13
2022-12-24T03:17:09.539Z,3.00
2022-12-24T03:19:13.291Z,3.10
2022-12-24T03:21:21.399Z,3.15
2022-12-24T03:23:23.102Z,3.13
2022-12-24T03:25:27.184Z,2.70
2022-12-24T03:27:30.811Z,3.13
2022-12-24T03:29:32.528Z,3.13
2022-12-24T03:31:45.283Z,2.90
2022-12-24T03:33:47.803Z,3.50
2022-12-24T03:35:50.688Z,3.33
2022-12-24T03:37:52.527Z,2.90
2022-12-24T03:39:54.049Z,2.80
2022-12-24T03:41:55.632Z,3.72
2022-12-24T03:43:57.421Z,2.72
2022-12-24T03:46:03.910Z,3.20
2022-12-24T03:48:05.879Z,4.25
2022-12-24T03:50:08.217Z,3.10
2022-12-24T03:52:11.193Z,3.88
2022-12-24T03:54:13.127Z,3.60
2022-12-24T03:56:15.424Z,3.30
2022-12-24T03:58:16.990Z,3.17
2022-12-24T04:00:19.809Z,3.40
2022-12-24T04:02:21.621Z,3.33
2022-12-24T04:04:23.438Z,4.27
2022-12-24T04:06:25.037Z,2.67
2022-12-24T04:08:28.269Z,2.50
2022-12-24T04:10:29.901Z,2.30
2022-12-24T04:12:31.578Z,3.10
2022-12-24T04:14:33.320Z,3.27
2022-12-24T04:16:34.897Z,3.20
2022-12-24T04:18:37.148Z,3.00
2022-12-24T04:20:38.753Z,2.87
2022-12-24T04:22:40.317Z,2.40
2022-12-24T04:24:43.488Z,3.15
2022-12-24T04:26:45.221Z,3.33
2022-12-24T04:28:46.819Z,2.80
2022-12-24T04:30:48.389Z,3.00
2022-12-24T04:32:50.025Z,2.90
2022-12-24T04:34:51.548Z,3.10
2022-12-24T04:36:53.381Z,3.50
2022-12-24T04:38:54.963Z,3.30
2022-12-24T04:41:02.063Z,3.90
2022-12-24T04:43:03.641Z,3.95
2022-12-24T04:45:06.115Z,3.25
2022-12-24T04:47:07.722Z,3.67
2022-12-24T04:49:09.300Z,5.23
2022-12-24T04:51:11.709Z,3.10
2022-12-24T04:53:13.599Z,3.50
2022-12-24T04:55:15.173Z,3.20
2022-12-24T04:57:18.158Z,4.60
2022-12-24T04:59:19.735Z,3.70
2022-12-24T05:01:23.981Z,3.67
2022-12-24T05:03:25.788Z,4.63
2022-12-24T05:05:27.400Z,4.53
2022-12-24T05:07:29.038Z,4.30
2022-12-24T05:09:30.664Z,3.58
2022-12-24T05:11:32.318Z,4.33
2022-12-24T05:13:42.541Z,4.60
2022-12-24T05:15:47.968Z,4.20
2022-12-24T05:17:50.082Z,4.70
2022-12-24T05:19:51.695Z,4.28
2022-12-24T05:21:53.565Z,4.77
2022-12-24T05:23:55.158Z,4.10
2022-12-24T05:25:57.185Z,5.00
2022-12-24T05:27:58.970Z,4.80
2022-12-24T05:30:01.952Z,5.33
2022-12-24T05:32:03.618Z,5.32
2022-12-24T05:34:05.251Z,5.75
2022-12-24T05:36:07.721Z,4.80
2022-12-24T05:38:09.265Z,4.60
2022-12-24T05:40:11.330Z,5.30
2022-12-24T05:42:14.247Z,5.00
2022-12-24T05:44:16.584Z,5.43
2022-12-24T05:46:21.584Z,5.30
2022-12-24T05:48:23.144Z,4.70
2022-12-24T05:50:24.757Z,4.83
2022-12-24T05:52:26.408Z,5.40
2022-12-24T05:54:28.053Z,5.85
2022-12-24T05:56:29.645Z,6.03
2022-12-24T05:58:31.238Z,5.30
2022-12-24T06:00:32.883Z,5.17
2022-12-24T06:02:35.899Z,4.77
2022-12-24T06:04:37.834Z,6.18
2022-12-24T06:06:39.419Z,4.83
2022-12-24T06:08:42.072Z,4.20
2022-12-24T06:10:43.739Z,5.70
2022-12-24T06:12:45.309Z,4.10
2022-12-24T06:14:46.878Z,4.70
2022-12-24T06:16:55.925Z,5.00
2022-12-24T06:18:58.921Z,4.60
2022-12-24T06:21:01.389Z,4.53
2022-12-24T06:23:03.236Z,5.60
2022-12-24T06:25:05.694Z,5.83
2022-12-24T06:27:07.351Z,6.40
2022-12-24T06:29:08.936Z,5.30
2022-12-24T06:31:13.113Z,4.90
2022-12-24T06:33:15.438Z,7.00
2022-12-24T06:35:18.872Z,6.10
2022-12-24T06:37:20.442Z,6.23
2022-12-24T06:39:21.991Z,6.53
2022-12-24T06:41:24.190Z,6.33
2022-12-24T06:43:25.987Z,6.35
2022-12-24T06:45:27.572Z,7.83
2022-12-24T06:47:29.179Z,7.35
2022-12-24T06:49:30.833Z,7.50
2022-12-24T06:51:33.782Z,6.93
2022-12-24T06:53:35.379Z,5.93
2022-12-24T06:55:37.167Z,5.90
2022-12-24T06:57:38.733Z,6.67
2022-12-24T06:59:40.276Z,6.13
2022-12-24T07:01:41.951Z,6.35
2022-12-24T07:03:43.819Z,5.82
2022-12-24T07:05:45.711Z,6.03
2022-12-24T07:07:48.673Z,6.45
2022-12-24T07:09:50.200Z,6.65
2022-12-24T07:11:51.730Z,6.20
2022-12-24T07:13:53.427Z,6.75
2022-12-24T07:15:58.308Z,6.17
2022-12-24T07:17:59.960Z,5.93
2022-12-24T07:20:01.674Z,6.82
2022-12-24T07:22:03.311Z,6.18
2022-12-24T07:27:09.544Z,6.60
2022-12-24T07:29:11.146Z,6.28
2022-12-24T07:31:12.830Z,6.25
2022-12-24T07:33:14.512Z,5.17
2022-12-24T07:35:16.394Z,6.03
2022-12-24T07:37:18.075Z,6.80
2022-12-24T07:39:19.637Z,6.90
2022-12-24T07:41:21.751Z,6.07
2022-12-24T07:43:25.042Z,5.35
2022-12-24T07:45:26.679Z,6.20
2022-12-24T07:47:28.188Z,5.43
2022-12-24T07:49:29.966Z,4.85
2022-12-24T07:51:31.700Z,5.50
2022-12-24T07:53:33.308Z,7.07
2022-12-24T07:55:36.109Z,6.70
2022-12-24T07:57:37.825Z,7.55
2022-12-24T07:59:40.799Z,6.43
2022-12-24T08:01:42.867Z,6.78
2022-12-24T08:03:45.518Z,6.00
2022-12-24T08:05:47.709Z,6.20
2022-12-24T08:07:49.287Z,6.05
2022-12-24T08:09:50.853Z,5.70
2022-12-24T08:11:52.735Z,6.40
2022-12-24T08:13:54.373Z,5.40
2022-12-24T08:15:57.693Z,5.23
2022-12-24T08:17:59.535Z,5.40
2022-12-24T08:20:01.181Z,5.70
2022-12-24T08:22:02.776Z,5.93
2022-12-24T08:24:05.313Z,5.20
2022-12-24T08:26:08.008Z,5.05
2022-12-24T08:28:10.147Z,6.15
2022-12-24T08:30:19.006Z,4.45
2022-12-24T08:32:23.857Z,5.10
2022-12-24T08:34:25.633Z,6.80
2022-12-24T08:36:27.214Z,6.43
2022-12-24T08:38:29.380Z,7.30
2022-12-24T08:40:30.978Z,5.37
2022-12-24T08:42:32.597Z,5.37
2022-12-24T08:44:34.203Z,5.38
2022-12-24T08:46:36.525Z,7.27
2022-12-24T08:48:39.490Z,5.93
2022-12-24T08:50:42.007Z,6.93
2022-12-24T08:52:43.655Z,5.80
2022-12-24T08:54:45.265Z,5.33
2022-12-24T08:56:46.845Z,5.33
2022-12-24T08:58:48.473Z,6.60
2022-12-24T09:00:52.347Z,6.43
2022-12-24T09:02:54.097Z,6.68
2022-12-24T09:04:57.270Z,5.60
2022-12-24T09:06:58.792Z,6.10
2022-12-24T09:09:00.384Z,6.13
2022-12-24T09:11:06.074Z,7.17
2022-12-24T09:13:07.818Z,6.07
2022-12-24T09:15:10.008Z,5.35
2022-12-24T09:17:11.650Z,7.10
2022-12-24T09:19:13.348Z,6.80
2022-12-24T09:21:16.655Z,5.85
2022-12-24T09:23:18.361Z,5.93
2022-12-24T09:25:19.936Z,6.40
2022-12-24T09:27:21.552Z,6.20
2022-12-24T09:29:23.142Z,6.17
2022-12-24T09:31:25.246Z,6.03
2022-12-24T09:33:27.648Z,6.10
2022-12-24T09:35:29.303Z,6.63
2022-12-24T09:37:34.639Z,6.57
2022-12-24T09:39:36.279Z,6.63
2022-12-24T09:41:47.421Z,6.40
2022-12-24T09:43:55.664Z,6.70
2022-12-24T09:46:07.057Z,6.00
2022-12-24T09:48:14.063Z,6.50
2022-12-24T09:50:29.114Z,6.17
2022-12-24T09:52:36.395Z,5.50
2022-12-24T09:54:47.706Z,6.53
2022-12-24T09:56:52.701Z,5.90
2022-12-24T09:58:58.392Z,6.83
2022-12-24T10:01:00.105Z,5.73
2022-12-24T10:03:01.820Z,6.50
2022-12-24T10:05:03.832Z,6.43
2022-12-24T10:07:12.814Z,6.73
2022-12-24T10:09:24.246Z,5.83
2022-12-24T10:11:31.386Z,6.10
2022-12-24T10:13:49.109Z,5.50
2022-12-24T10:15:56.883Z,6.03
2022-12-24T10:18:10.082Z,5.50
2022-12-24T10:20:26.974Z,6.17
2022-12-24T10:22:37.260Z,5.65
2022-12-24T10:24:50.788Z,6.35
2022-12-24T10:26:58.107Z,5.50
2022-12-24T10:29:02.555Z,5.13
2022-12-24T10:31:07.787Z,5.55
2022-12-24T10:33:20.696Z,5.50
2022-12-24T10:35:26.516Z,5.80
2022-12-24T10:37:29.560Z,7.30
2022-12-24T10:39:31.221Z,13.67
2022-12-24T10:41:36.050Z,6.28
2022-12-24T10:43:39.006Z,5.93
2022-12-24T10:45:45.829Z,6.27
2022-12-24T10:47:51.882Z,6.83
2022-12-24T10:50:01.147Z,6.70
2022-12-24T10:52:05.291Z,6.17
2022-12-24T10:54:12.106Z,6.20
2022-12-24T10:56:16.945Z,6.50
2022-12-24T10:58:20.255Z,6.13
2022-12-24T11:00:27.125Z,6.57
2022-12-24T11:02:35.915Z,7.20
2022-12-24T11:04:49.306Z,6.03
2022-12-24T11:06:56.077Z,7.40
2022-12-24T11:09:20.282Z,4.90
2022-12-24T11:11:21.964Z,6.37
2022-12-24T11:13:42.907Z,6.30
2022-12-24T11:15:44.619Z,5.30
2022-12-24T11:17:53.752Z,5.60
2022-12-24T11:19:55.506Z,6.10
2022-12-24T11:22:03.677Z,5.23
2022-12-24T11:24:14.374Z,6.40
2022-12-24T11:26:21.855Z,5.43
2022-12-24T11:28:27.292Z,6.00
2022-12-24T11:30:31.846Z,4.87
2022-12-24T11:32:33.452Z,5.53
2022-12-24T11:34:35.011Z,5.60
2022-12-24T11:36:36.618Z,5.93
2022-12-24T11:38:38.781Z,5.80
2022-12-24T11:40:43.024Z,5.40
2022-12-24T11:42:44.639Z,5.60
2022-12-24T11:44:50.106Z,5.67
2022-12-24T11:46:52.023Z,6.70
2022-12-24T11:49:22.191Z,5.10
2022-12-24T11:51:25.682Z,5.60
2022-12-24T11:53:35.525Z,5.63
2022-12-24T11:55:44.359Z,4.90
2022-12-24T11:57:54.543Z,6.10
2022-12-24T11:59:57.801Z,5.80
2022-12-24T12:02:12.743Z,5.30
2022-12-24T12:04:18.497Z,5.87
2022-12-24T12:06:28.843Z,5.20
2022-12-24T12:08:33.414Z,5.80
2022-12-24T12:10:39.256Z,4.23
2022-12-24T12:12:43.515Z,5.27
2022-12-24T12:14:50.108Z,4.83
2022-12-24T12:17:01.889Z,4.67
2022-12-24T12:19:13.058Z,4.70
2022-12-24T12:21:20.570Z,6.10
2022-12-24T12:23:26.303Z,4.83
2022-12-24T12:25:32.725Z,4.10
2022-12-24T12:27:39.621Z,5.03
2022-12-24T12:29:46.864Z,5.43
2022-12-24T12:31:53.146Z,4.80
2022-12-24T12:34:02.814Z,4.57
2022-12-24T12:36:10.415Z,5.83
2022-12-24T12:38:17.276Z,5.82
2022-12-24T12:40:19.057Z,4.90
2022-12-24T12:42:29.522Z,4.37
2022-12-24T12:44:56.316Z,5.30
2022-12-24T12:47:12.543Z,4.63
2022-12-24T12:49:33.915Z,5.90
2022-12-24T12:51:42.686Z,5.23
2022-12-24T12:54:08.252Z,5.70
2022-12-24T12:56:21.451Z,5.07
2022-12-24T12:58:27.498Z,6.03
2022-12-24T13:00:33.355Z,5.43
2022-12-24T13:02:51.861Z,5.20
2022-12-24T13:05:20.664Z,6.27
2022-12-24T13:07:48.289Z,4.63
2022-12-24T13:10:08.451Z,5.50
2022-12-24T13:12:45.858Z,5.23
2022-12-24T13:15:07.572Z,5.10
2022-12-24T13:17:32.094Z,6.20
2022-12-24T13:19:51.285Z,4.90
2022-12-24T13:21:56.500Z,5.47
2022-12-24T13:24:15.333Z,4.90
2022-12-24T13:26:17.407Z,5.45
2022-12-24T13:28:43.501Z,6.30
2022-12-24T13:30:45.051Z,5.73
2022-12-24T13:32:51.305Z,4.87
2022-12-24T13:34:54.670Z,5.18
2022-12-24T13:37:21.079Z,6.13
2022-12-24T13:39:22.877Z,5.15
2022-12-24T13:41:54.549Z,6.57
2022-12-24T13:44:03.069Z,6.27
2022-12-24T13:46:04.688Z,6.70
2022-12-24T13:48:25.000Z,6.20
2022-12-24T13:50:36.835Z,6.83
2022-12-24T13:52:50.121Z,6.03
2022-12-24T13:55:05.490Z,5.60
2022-12-24T13:57:25.678Z,5.50
2022-12-24T13:59:38.659Z,6.20
2022-12-24T14:01:43.111Z,6.60
2022-12-24T14:03:47.781Z,8.00
2022-12-24T14:05:52.661Z,6.27
2022-12-24T14:07:58.246Z,6.87
2022-12-24T14:10:00.346Z,5.65
2022-12-24T14:12:29.207Z,6.25
2022-12-24T14:14:32.900Z,5.90
2022-12-24T14:16:43.724Z,6.10
2022-12-24T14:18:49.721Z,6.03
2022-12-24T14:20:53.799Z,5.40
2022-12-24T14:22:58.036Z,5.30
2022-12-24T14:25:02.775Z,5.97
2022-12-24T14:27:14.522Z,5.70
2022-12-24T14:29:25.024Z,6.73
2022-12-24T14:31:26.990Z,5.23
2022-12-24T14:33:29.673Z,6.50
2022-12-24T14:35:37.881Z,5.78
2022-12-24T14:37:41.058Z,5.80
2022-12-24T14:39:47.976Z,5.80
2022-12-24T14:41:59.974Z,5.90
2022-12-24T14:44:13.122Z,5.93
2022-12-24T14:46:24.613Z,5.43
2022-12-24T14:48:37.147Z,5.03
2022-12-24T14:51:07.402Z,5.00
2022-12-24T14:53:23.549Z,5.80
2022-12-24T14:55:31.330Z,6.13
2022-12-24T14:57:32.999Z,5.30
2022-12-24T14:59:42.320Z,5.20
2022-12-24T15:01:44.338Z,5.45
2022-12-24T15:03:46.153Z,6.17
2022-12-24T15:05:52.456Z,5.50
2022-12-24T15:07:58.016Z,5.67
2022-12-24T15:09:59.839Z,6.80
2022-12-24T15:12:03.826Z,6.00
2022-12-24T15:14:05.685Z,6.17
2022-12-24T15:16:09.645Z,6.15
2022-12-24T15:18:16.330Z,5.93
2022-12-24T15:20:20.583Z,6.30
2022-12-24T15:22:24.851Z,6.50
2022-12-24T15:24:28.307Z,6.53
2022-12-24T15:26:31.659Z,6.80
2022-12-24T15:28:38.650Z,6.17
2022-12-24T15:30:40.335Z,5.93
2022-12-24T15:32:42.342Z,5.03
2022-12-24T15:34:46.490Z,5.07
2022-12-24T15:36:48.101Z,5.27
2022-12-24T15:38:52.943Z,4.80
2022-12-24T15:40:55.426Z,5.80
2022-12-24T15:42:57.138Z,5.80
2022-12-24T15:45:03.538Z,6.70
2022-12-24T15:47:08.569Z,7.80
2022-12-24T15:49:17.348Z,8.40
2022-12-24T15:51:25.698Z,8.80
2022-12-24T15:53:30.204Z,10.50
2022-12-24T15:55:35.972Z,9.80
2022-12-24T15:57:37.659Z,7.27
2022-12-24T15:59:39.355Z,5.93
2022-12-24T16:01:43.966Z,6.30
2022-12-24T16:03:56.390Z,6.57
2022-12-24T16:06:02.073Z,5.47
2022-12-24T16:08:25.119Z,5.80
2022-12-24T16:10:26.932Z,5.80
2022-12-24T16:12:30.065Z,5.57
2022-12-24T16:14:32.741Z,6.17
2022-12-24T16:16:37.578Z,5.47
2022-12-24T16:18:52.529Z,4.93
2022-12-24T16:20:56.116Z,5.07
2022-12-24T16:22:58.149Z,4.97
2022-12-24T16:25:00.750Z,5.23
2022-12-24T16:27:02.397Z,6.37
2022-12-24T16:29:04.355Z,6.87
2022-12-24T16:31:06.155Z,5.93
2022-12-24T16:33:14.188Z,5.30
2022-12-24T16:35:25.646Z,6.20
2022-12-24T16:37:27.247Z,6.70
2022-12-24T16:39:31.859Z,6.90
2022-12-24T16:41:33.469Z,6.10
2022-12-24T16:43:35.075Z,7.10
2022-12-24T16:45:36.926Z,6.67
2022-12-24T16:47:42.711Z,6.30
2022-12-24T16:49:45.335Z,6.95
2022-12-24T16:51:48.296Z,10.33
2022-12-24T16:53:49.921Z,7.95
2022-12-24T16:55:51.890Z,6.85
2022-12-24T16:57:53.511Z,6.80
2022-12-24T16:59:55.094Z,7.30
2022-12-24T17:01:56.751Z,7.60
2022-12-24T17:03:58.444Z,9.13
2022-12-24T17:06:04.589Z,9.93
2022-12-24T17:08:08.291Z,8.40
2022-12-24T17:10:11.700Z,7.90
2022-12-24T17:12:14.405Z,8.53
2022-12-24T17:14:20.331Z,6.97
2022-12-24T17:16:37.445Z,6.77
2022-12-24T17:18:39.190Z,7.17
2022-12-24T17:20:40.843Z,6.30
2022-12-24T17:22:42.485Z,6.67
2022-12-24T17:24:45.668Z,7.60
2022-12-24T17:26:47.227Z,6.67
2022-12-24T17:28:52.499Z,7.03
2022-12-24T17:30:54.133Z,7.70
2022-12-24T17:32:55.760Z,9.10
2022-12-24T17:34:57.330Z,8.80
2022-12-24T17:36:58.914Z,8.10
2022-12-24T17:39:00.590Z,8.90
2022-12-24T17:41:05.030Z,9.07
2022-12-24T17:43:06.644Z,9.17
2022-12-24T17:45:09.068Z,9.80
2022-12-24T17:47:10.598Z,8.73
2022-12-24T17:49:12.521Z,10.00
2022-12-24T17:51:15.917Z,9.95
2022-12-24T17:53:20.328Z,10.40
2022-12-24T17:55:21.981Z,10.97
2022-12-24T17:57:24.920Z,9.80
2022-12-24T17:59:26.524Z,9.63
2022-12-24T18:01:28.289Z,10.17
2022-12-24T18:03:30.227Z,10.13
2022-12-24T18:05:34.073Z,10.67
2022-12-24T18:07:35.805Z,10.70
2022-12-24T18:09:37.620Z,8.90
2022-12-24T18:11:39.852Z,10.53
2022-12-24T18:13:42.952Z,10.10
2022-12-24T18:15:44.620Z,10.33
2022-12-24T18:17:50.574Z,11.60
2022-12-24T18:19:52.185Z,10.37
2022-12-24T18:21:53.814Z,9.40
2022-12-24T18:23:55.555Z,9.90
2022-12-24T18:26:01.674Z,11.63
2022-12-24T18:28:03.500Z,9.97
2022-12-24T18:30:08.628Z,10.20
2022-12-24T18:32:10.223Z,10.20
2022-12-24T18:34:13.472Z,10.83
2022-12-24T18:36:15.440Z,8.80
2022-12-24T18:38:16.993Z,11.17
2022-12-24T18:40:18.620Z,10.03
2022-12-24T18:42:20.311Z,10.17
2022-12-24T18:44:25.268Z,10.03
2022-12-24T18:46:31.606Z,11.50
2022-12-24T18:48:33.251Z,10.20
2022-12-24T18:50:34.898Z,10.70
2022-12-24T18:52:39.646Z,10.70
2022-12-24T18:54:41.485Z,10.17
2022-12-24T18:56:43.097Z,11.30
2022-12-24T18:58:44.771Z,11.82
2022-12-24T19:00:46.796Z,11.77
2022-12-24T19:02:49.857Z,12.37
2022-12-24T19:04:51.580Z,10.30
2022-12-24T19:06:53.715Z,10.90
2022-12-24T19:08:57.630Z,10.80
2022-12-24T19:11:01.125Z,10.50
2022-12-24T19:13:02.740Z,9.90
2022-12-24T19:15:05.217Z,10.63
2022-12-24T19:17:06.853Z,10.00
2022-12-24T19:19:11.496Z,10.43
2022-12-24T19:21:14.273Z,9.40
2022-12-24T19:23:18.736Z,9.87
2022-12-24T19:25:21.465Z,10.30
2022-12-24T19:27:23.035Z,13.30
2022-12-24T19:29:24.665Z,13.00
2022-12-24T19:31:26.425Z,14.80
2022-12-24T19:33:28.007Z,16.57
2022-12-24T19:35:31.261Z,12.17
2022-12-24T19:37:32.861Z,12.63
2022-12-24T19:39:34.435Z,12.40
2022-12-24T19:41:36.189Z,11.63
2022-12-24T19:43:38.072Z,13.47
2022-12-24T19:45:39.717Z,12.40
2022-12-24T19:47:41.621Z,10.27
2022-12-24T19:49:43.178Z,9.77
2022-12-24T19:51:46.190Z,8.40
2022-12-24T19:53:48.696Z,8.90
2022-12-24T19:55:50.264Z,9.77
2022-12-24T19:57:51.967Z,8.63
2022-12-24T19:59:53.519Z,9.60
2022-12-24T20:01:55.375Z,9.50
2022-12-24T20:03:57.654Z,9.27
2022-12-24T20:05:59.274Z,9.35
2022-12-24T20:08:02.231Z,9.07
2022-12-24T20:10:04.227Z,8.70
2022-12-24T20:12:06.619Z,9.50
2022-12-24T20:14:08.421Z,8.67
2022-12-24T20:16:12.107Z,8.10
2022-12-24T20:18:14.569Z,10.50
2022-12-24T20:20:16.288Z,10.60
2022-12-24T20:22:17.885Z,10.47
2022-12-24T20:24:20.842Z,11.47
2022-12-24T20:26:27.758Z,10.17
2022-12-24T20:28:31.232Z,10.20
2022-12-24T20:30:36.002Z,10.33
2022-12-24T20:32:37.469Z,10.13
2022-12-24T20:34:38.960Z,10.53
2022-12-24T20:36:40.681Z,9.90
2022-12-24T20:38:42.701Z,11.07
2022-12-24T20:40:46.733Z,10.93
2022-12-24T20:42:48.402Z,10.50
2022-12-24T20:44:52.798Z,10.47
2022-12-24T20:46:54.411Z,9.57
2022-12-24T20:48:56.143Z,10.87
2022-12-24T20:50:58.005Z,13.30
2022-12-24T20:52:59.670Z,11.07
2022-12-24T20:55:01.250Z,8.63
2022-12-24T20:57:04.147Z,9.77
2022-12-24T20:59:05.661Z,9.87
2022-12-24T21:01:11.655Z,9.30
2022-12-24T21:03:13.395Z,10.50
2022-12-24T21:05:15.077Z,8.27
2022-12-24T21:07:16.732Z,7.93
2022-12-24T21:09:18.371Z,9.67
2022-12-24T21:11:20.587Z,9.40
2022-12-24T21:13:23.707Z,8.10
2022-12-24T21:15:27.434Z,8.50
2022-12-24T21:17:29.268Z,9.90
2022-12-24T21:19:31.003Z,8.53
2022-12-24T21:21:33.349Z,8.93
2022-12-24T21:23:34.972Z,9.50
2022-12-24T21:25:36.795Z,9.73
2022-12-24T21:27:38.964Z,8.90
2022-12-24T21:29:41.889Z,8.73
2022-12-24T21:31:43.584Z,8.87
2022-12-24T21:33:45.444Z,9.77
2022-12-24T21:35:47.039Z,8.17
2022-12-24T21:37:48.778Z,8.27
2022-12-24T21:39:50.368Z,7.47
2022-12-24T21:41:51.948Z,9.75
2022-12-24T21:43:53.601Z,8.15
2022-12-24T21:45:57.138Z,7.10
2022-12-24T21:47:58.812Z,7.77
2022-12-24T21:50:00.449Z,7.03
2022-12-24T21:52:02.074Z,8.30
2022-12-24T21:54:03.893Z,8.10
2022-12-24T21:56:08.817Z,8.52
2022-12-24T21:58:10.490Z,8.67
2022-12-24T22:00:12.874Z,9.07
2022-12-24T22:02:16.450Z,7.57
2022-12-24T22:04:18.409Z,7.85
2022-12-24T22:06:20.003Z,6.67
2022-12-24T22:08:21.637Z,7.67
2022-12-24T22:10:23.306Z,7.10
2022-12-24T22:12:25.662Z,7.37
2022-12-24T22:14:27.570Z,7.87
2022-12-24T22:16:29.512Z,7.30
2022-12-24T22:18:32.440Z,6.77
2022-12-24T22:20:34.368Z,7.35
2022-12-24T22:22:35.912Z,6.30
2022-12-24T22:24:37.489Z,6.68
2022-12-24T22:26:39.108Z,6.97
2022-12-24T22:28:40.667Z,6.70
2022-12-24T22:30:43.304Z,6.40
2022-12-24T22:32:44.942Z,6.33
2022-12-24T22:34:47.926Z,7.32
2022-12-24T22:36:49.554Z,7.03
2022-12-24T22:38:51.147Z,6.40
2022-12-24T22:40:52.784Z,6.80
2022-12-24T22:42:54.646Z,6.53
2022-12-24T22:44:56.467Z,6.40
2022-12-24T22:46:58.083Z,6.40
2022-12-24T22:48:59.646Z,5.80
2022-12-24T22:51:05.567Z,5.30
2022-12-24T22:53:07.195Z,5.37
2022-12-24T22:55:09.264Z,6.27
2022-12-24T22:57:11.268Z,6.00
2022-12-24T22:59:14.219Z,5.37
2022-12-24T23:01:15.805Z,5.63
2022-12-24T23:03:17.746Z,5.13
2022-12-24T23:05:19.680Z,5.20
2022-12-24T23:07:22.745Z,5.50
2022-12-24T23:09:24.299Z,4.90
2022-12-24T23:11:25.966Z,5.00
2022-12-24T23:13:27.573Z,5.20
2022-12-24T23:15:29.210Z,5.10
2022-12-24T23:17:30.803Z,4.77
2022-12-24T23:19:32.420Z,5.82
2022-12-24T23:21:35.593Z,6.40
2022-12-24T23:23:38.598Z,6.30
2022-12-24T23:25:40.481Z,6.40
2022-12-24T23:27:42.121Z,5.77
2022-12-24T23:29:43.687Z,6.10
2022-12-24T23:31:45.355Z,5.27
2022-12-24T23:33:47.747Z,5.30
2022-12-24T23:35:49.453Z,6.07
2022-12-24T23:37:51.007Z,6.23
2022-12-24T23:39:53.997Z,6.40
2022-12-24T23:41:55.577Z,6.53
2022-12-24T23:43:57.095Z,5.50
2022-12-24T23:45:58.995Z,5.47
2022-12-24T23:48:01.788Z,5.50
2022-12-24T23:50:04.180Z,5.93
2022-12-24T23:52:05.761Z,5.17
2022-12-24T23:54:07.367Z,6.10
2022-12-24T23:56:11.765Z,5.87
2022-12-24T23:58:14.688Z,5.77
